0O4 weather

Corning Municipal Airport
Corning, California, United States

Public forecast

Using degrees Fahrenheit for public forecast. Weather courtesy of forecast.io.

Closest aviation weather report (METAR) to Corning Municipal Airport

Closest report is Red Bluff Municipal Airport, 13.0 nm (24.0 km) NNW. Retrieved 2019/10/22 18:54 UTC (1 hour ago):

KRBL 221854Z AUTO 35012KT 10SM CLR 27/04 A3022 RMK AO2 SLP229 T02720044

Closest aviation forecast (TAF) to Corning Municipal Airport

Closest forecast is Red Bluff Municipal Airport, 13.0 nm (24.0 km) NNW. Retrieved 2019/10/22 18:36 UTC (1 hour ago):

TAF KRBL 221733Z 2218/2318 36011KT P6SM SKC FM231300 34014G26KT P6SM SKC